Time;durP1;ratioP1;P1;durP2;ratioP2;P2;SDS_P1;SDS_P2;PMS_P1;PMS_P2;Temp;Humidity;BMP_temperature;BMP_pressure;BME280_temperature;BME280_humidity;BME280_pressure;Samples;Min_cycle;Max_cycle;Signal;HPM_P1;HPM_P2
2021/04/20 00:01:15;;;;;;;29.30;9.80;;;;;;;;;;5011921;28;20042;-82
2021/04/20 00:03:41;;;;;;;14.40;6.28;;;;;;;;;;5013549;28;20021;-82
2021/04/20 00:06:08;;;;;;;11.38;4.35;;;8.00;69.20;;;;;;5008162;28;20026;-82
2021/04/20 00:08:34;;;;;;;6.82;3.25;;;;;;;;;;5006915;28;20053;-82
2021/04/20 00:11:00;;;;;;;14.20;4.25;;;;;;;;;;5022417;28;20030;-82
2021/04/20 00:13:26;;;;;;;5.85;4.22;;;8.20;67.20;;;;;;5011648;28;20030;-82
2021/04/20 00:15:52;;;;;;;8.75;3.08;;;;;;;;;;4995599;28;20022;-82
2021/04/20 00:18:18;;;;;;;4.35;2.42;;;;;;;;;;5008393;28;20030;-83
2021/04/20 00:20:44;;;;;;;6.32;3.75;;;;;;;;;;5006670;28;20060;-83
2021/04/20 00:23:10;;;;;;;19.92;5.55;;;;;;;;;;5007390;28;20111;-82
2021/04/20 00:25:37;;;;;;;32.50;9.98;;;;;;;;;;5011829;28;20064;-82
2021/04/20 00:28:03;;;;;;;45.28;13.13;;;;;;;;;;4995799;28;20554;-82
2021/04/20 00:30:29;;;;;;;26.52;10.10;;;;;;;;;;4998514;28;20878;-82
2021/04/20 00:32:55;;;;;;;26.77;8.45;;;;;;;;;;5000632;28;20053;-82
2021/04/20 00:35:21;;;;;;;18.13;7.43;;;;;;;;;;5001413;28;20025;-82
2021/04/20 00:37:47;;;;;;;6.40;4.53;;;;;;;;;;5010659;28;20026;-82
2021/04/20 00:40:15;;;;;;;7.72;4.53;;;7.90;46.80;;;;;;4995956;28;20056;-83
2021/04/20 00:42:49;;;;;;;14.70;4.97;;;7.90;47.80;;;;;;5008900;28;20033;-82
2021/04/20 00:45:27;;;;;;;6.20;3.00;;;8.00;48.50;;;;;;4998818;28;20036;-82
2021/04/20 00:47:53;;;;;;;9.30;4.35;;;8.00;69.70;;;;;;5003903;28;20109;-83
2021/04/20 00:50:23;;;;;;;16.88;4.80;;;7.50;67.90;;;;;;5006306;28;20089;-82
2021/04/20 00:52:48;;;;;;;8.43;5.93;;;7.60;69.00;;;;;;5000810;28;20029;-82
2021/04/20 00:55:15;;;;;;;13.93;5.90;;;;;;;;;;5012340;28;20413;-84
2021/04/20 00:57:41;;;;;;;15.27;5.20;;;;;;;;;;4996732;28;20128;-82
2021/04/20 01:00:13;;;;;;;8.68;3.55;;;7.90;46.10;;;;;;5006120;28;20029;-82
2021/04/20 01:02:39;;;;;;;10.30;4.15;;;;;;;;;;5006350;28;20092;-82
2021/04/20 01:05:08;;;;;;;11.07;4.55;;;7.90;45.40;;;;;;5006599;28;20049;-83
2021/04/20 01:07:34;;;;;;;11.35;3.88;;;7.80;45.70;;;;;;5008002;28;20034;-82
2021/04/20 01:10:01;;;;;;;8.07;3.47;;;;;;;;;;5009710;28;20034;-83
2021/04/20 01:12:27;;;;;;;10.93;4.97;;;;;;;;;;5007591;28;20025;-82
2021/04/20 01:14:53;;;;;;;9.80;5.22;;;;;;;;;;5005970;28;20036;-82
2021/04/20 01:17:27;;;;;;;7.13;4.20;;;7.50;47.50;;;;;;5006348;28;20030;-83
2021/04/20 01:19:59;;;;;;;20.10;8.07;;;7.10;72.30;;;;;;4996357;28;20419;-82
2021/04/20 01:22:25;;;;;;;31.95;14.00;;;;;;;;;;5010758;28;20030;-82
2021/04/20 01:24:52;;;;;;;16.98;7.40;;;7.20;49.40;;;;;;4994540;28;20491;-82
2021/04/20 01:27:18;;;;;;;6.28;4.07;;;;;;;;;;5007195;28;20103;-82
2021/04/20 01:29:44;;;;;;;11.75;3.72;;;;;;;;;;5001746;28;20089;-83
2021/04/20 01:32:10;;;;;;;8.80;4.30;;;;;;;;;;4999117;28;20554;-83
2021/04/20 01:34:39;;;;;;;13.93;5.10;;;7.70;47.10;;;;;;4994989;28;20105;-82
2021/04/20 01:37:05;;;;;;;24.63;8.45;;;;;;;;;;5009812;28;20037;-82
2021/04/20 01:39:31;;;;;;;6.90;3.97;;;;;;;;;;5011483;28;20029;-82
2021/04/20 01:41:57;;;;;;;4.55;3.15;;;;;;;;;;5000436;28;20050;-82
2021/04/20 01:44:23;;;;;;;9.38;4.00;;;;;;;;;;4999238;28;20506;-82
2021/04/20 01:46:49;;;;;;;6.47;3.85;;;;;;;;;;5020860;28;20030;-84
2021/04/20 01:49:15;;;;;;;5.22;3.95;;;;;;;;;;5010280;28;20030;-82
2021/04/20 01:51:41;;;;;;;9.18;4.60;;;;;;;;;;4995588;28;20041;-82
2021/04/20 01:54:07;;;;;;;8.43;3.38;;;;;;;;;;5005845;28;20046;-82
2021/04/20 01:56:33;;;;;;;6.65;3.35;;;7.10;47.00;;;;;;5005662;28;20033;-82
2021/04/20 01:59:00;;;;;;;5.68;3.55;;;;;;;;;;5004855;28;20590;-82
2021/04/20 02:01:27;;;;;;;6.35;3.42;;;7.00;47.00;;;;;;5009775;28;20091;-82
2021/04/20 02:03:53;;;;;;;7.00;3.85;;;;;;;;;;4993997;28;20130;-82
2021/04/20 02:06:22;;;;;;;4.95;3.25;;;7.00;48.30;;;;;;4997939;28;20129;-82
2021/04/20 02:08:49;;;;;;;7.22;4.25;;;;;;;;;;5003004;28;20525;-82
2021/04/20 02:11:17;;;;;;;9.13;4.07;;;7.00;48.80;;;;;;5005199;28;20048;-82
2021/04/20 02:13:43;;;;;;;5.20;3.17;;;;;;;;;;4994109;28;20396;-83
2021/04/20 02:16:10;;;;;;;5.57;3.60;;;;;;;;;;5009521;28;20587;-83
2021/04/20 02:18:40;;;;;;;12.85;5.07;;;6.90;48.90;;;;;;5006300;28;20521;-82
2021/04/20 02:21:06;;;;;;;13.02;5.07;;;;;;;;;;5009935;28;20048;-83
2021/04/20 02:23:32;;;;;;;6.28;3.15;;;;;;;;;;5002954;28;20496;-82
2021/04/20 02:26:13;;;;;;;9.95;4.35;;;6.90;57.50;;;;;;4998458;28;20034;-82
2021/04/20 02:28:39;;;;;;;5.38;3.38;;;;;;;;;;4993333;28;20537;-82
2021/04/20 02:31:07;;;;;;;7.68;3.63;;;6.60;68.80;;;;;;5008979;28;20034;-82
2021/04/20 02:33:33;;;;;;;7.28;4.18;;;6.80;48.80;;;;;;4995624;28;20030;-83
2021/04/20 02:36:00;;;;;;;7.30;3.45;;;6.80;48.20;;;;;;5008046;28;20483;-82
2021/04/20 02:38:27;;;;;;;9.05;4.18;;;6.80;48.20;;;;;;5005020;28;20026;-82
2021/04/20 02:40:58;;;;;;;7.43;4.28;;;6.80;48.00;;;;;;5007587;28;20049;-82
2021/04/20 02:43:24;;;;;;;6.28;3.58;;;7.00;47.00;;;;;;4993755;28;20063;-82
2021/04/20 02:45:56;;;;;;;9.32;4.88;;;6.90;47.50;;;;;;4991028;28;20832;-83
2021/04/20 02:48:22;;;;;;;6.40;4.03;;;;;;;;;;5008393;28;20092;-83
2021/04/20 02:50:49;;;;;;;6.60;3.58;;;;;;;;;;5000550;28;20483;-82
2021/04/20 02:53:18;;;;;;;14.35;5.20;;;6.70;47.00;;;;;;5006462;28;20050;-82
2021/04/20 02:55:45;;;;;;;6.40;3.90;;;6.80;49.20;;;;;;4997949;28;20068;-82
2021/04/20 02:58:16;;;;;;;7.93;3.03;;;6.80;48.10;;;;;;4993266;28;20033;-83
2021/04/20 03:00:49;;;;;;;5.63;3.95;;;6.80;49.00;;;;;;5005859;28;20038;-83
2021/04/20 03:03:16;;;;;;;6.95;3.55;;;6.80;48.50;;;;;;5037090;28;20049;-82
2021/04/20 03:05:43;;;;;;;10.00;4.97;;;;;;;;;;5000834;28;20574;-82
2021/04/20 03:08:09;;;;;;;6.90;3.75;;;;;;;;;;4996713;28;20069;-82
2021/04/20 03:10:39;;;;;;;9.98;4.25;;;6.50;49.60;;;;;;5004811;28;20060;-83
2021/04/20 03:13:06;;;;;;;7.55;3.95;;;6.80;48.90;;;;;;5008008;28;20034;-82
2021/04/20 03:15:33;;;;;;;8.18;5.78;;;6.70;49.20;;;;;;4995135;28;20144;-82
2021/04/20 03:17:59;;;;;;;14.80;4.05;;;;;;;;;;5003526;28;20487;-82
2021/04/20 03:20:25;;;;;;;10.00;3.53;;;;;;;;;;5003081;28;20057;-82
2021/04/20 03:22:52;;;;;;;8.70;3.72;;;;;;;;;;4994232;28;20495;-83
2021/04/20 03:25:19;;;;;;;4.15;3.35;;;6.20;49.50;;;;;;5008422;28;20019;-82
2021/04/20 03:27:48;;;;;;;11.98;4.88;;;5.80;52.10;;;;;;5005499;28;20114;-82
2021/04/20 03:30:16;;;;;;;10.63;4.28;;;6.20;52.00;;;;;;5008215;28;20073;-83
2021/04/20 03:32:48;;;;;;;10.77;4.13;;;6.50;51.80;;;;;;5000312;28;20030;-82
2021/04/20 03:35:19;;;;;;;13.55;4.45;;;6.60;50.30;;;;;;4996680;28;20030;-82
2021/04/20 03:38:01;;;;;;;6.00;3.85;;;6.10;50.10;;;;;;4993327;28;20057;-83
2021/04/20 03:40:28;;;;;;;11.35;3.45;;;6.00;51.10;;;;;;5008604;28;20137;-82
2021/04/20 03:42:58;;;;;;;10.30;6.93;;;6.10;51.20;;;;;;4992516;28;20046;-83
2021/04/20 03:45:29;;;;;;;9.90;4.18;;;6.00;51.10;;;;;;5007343;28;20100;-82
2021/04/20 03:47:59;;;;;;;9.15;3.05;;;6.20;50.60;;;;;;5004234;28;20034;-82
2021/04/20 03:50:34;;;;;;;9.80;4.22;;;6.30;50.00;;;;;;5002857;28;20084;-82
2021/04/20 03:53:03;;;;;;;6.25;3.67;;;6.30;49.70;;;;;;5009838;28;20397;-82
2021/04/20 03:55:32;;;;;;;9.13;3.30;;;6.40;50.10;;;;;;5008151;28;20565;-82
2021/04/20 03:57:59;;;;;;;4.13;3.15;;;6.40;71.20;;;;;;4992214;28;20030;-82
2021/04/20 04:00:25;;;;;;;11.18;4.22;;;6.20;48.10;;;;;;4995367;28;20414;-83
2021/04/20 04:02:54;;;;;;;8.32;3.47;;;6.20;71.80;;;;;;4996458;28;20052;-82
2021/04/20 04:05:23;;;;;;;11.52;4.97;;;6.30;48.70;;;;;;4997761;28;20351;-83
2021/04/20 04:07:53;;;;;;;6.75;3.47;;;6.40;48.80;;;;;;5008265;28;20034;-82
2021/04/20 04:10:19;;;;;;;8.25;3.88;;;;;;;;;;5008193;28;20037;-83
2021/04/20 04:12:49;;;;;;;5.70;3.28;;;6.20;49.20;;;;;;4992724;28;20519;-83
2021/04/20 04:15:16;;;;;;;7.70;3.00;;;6.30;49.40;;;;;;4995766;28;20101;-82
2021/04/20 04:17:45;;;;;;;6.72;2.67;;;6.20;48.80;;;;;;4997106;28;20027;-83
2021/04/20 04:20:13;;;;;;;6.00;3.58;;;6.10;48.80;;;;;;4997317;28;20026;-83
2021/04/20 04:22:47;;;;;;;8.40;3.33;;;6.10;48.60;;;;;;4993221;28;20046;-82
2021/04/20 04:25:17;;;;;;;6.05;3.47;;;6.20;48.60;;;;;;4995916;28;20026;-81
2021/04/20 04:27:47;;;;;;;10.25;4.78;;;6.20;47.80;;;;;;5008742;28;20112;-82
2021/04/20 04:30:15;;;;;;;8.00;4.38;;;6.30;47.50;;;;;;5007664;28;20033;-82
2021/04/20 04:32:43;;;;;;;12.95;5.82;;;6.20;47.30;;;;;;5007057;28;20052;-82
2021/04/20 04:35:10;;;;;;;7.72;5.13;;;5.00;46.10;;;;;;5008687;28;20029;-83
2021/04/20 04:37:37;;;;;;;10.45;4.55;;;;;;;;;;4999408;28;20037;-82
2021/04/20 04:40:07;;;;;;;15.00;4.85;;;5.90;46.90;;;;;;5010449;28;20430;-82
2021/04/20 04:42:33;;;;;;;6.68;3.83;;;;;;;;;;5008364;28;20026;-82
2021/04/20 04:45:04;;;;;;;13.35;4.20;;;5.90;49.10;;;;;;5001681;28;20030;-82
2021/04/20 04:47:30;;;;;;;8.77;3.67;;;;;;;;;;5000143;28;20042;-83
2021/04/20 04:50:00;;;;;;;10.57;4.60;;;6.00;49.10;;;;;;4996914;28;20106;-83
2021/04/20 04:52:26;;;;;;;10.00;3.95;;;6.20;48.80;;;;;;5011031;28;20022;-83
2021/04/20 04:54:52;;;;;;;10.27;4.40;;;;;;;;;;4995148;28;20046;-81
2021/04/20 04:57:19;;;;;;;6.22;4.35;;;5.60;51.00;;;;;;5011586;28;20037;-82
2021/04/20 04:59:46;;;;;;;8.43;3.35;;;6.00;51.20;;;;;;5006832;28;20126;-82
2021/04/20 05:02:12;;;;;;;13.45;3.00;;;;;;;;;;5004825;28;20050;-82
2021/04/20 05:04:38;;;;;;;9.35;3.97;;;;;;;;;;4994257;28;20117;-83
2021/04/20 05:07:04;;;;;;;5.40;3.42;;;;;;;;;;5008305;28;20157;-82
2021/04/20 05:09:30;;;;;;;11.30;3.92;;;;;;;;;;4996919;28;20457;-82
2021/04/20 05:11:57;;;;;;;8.35;4.55;;;6.20;50.40;;;;;;4999003;28;20531;-82
2021/04/20 05:14:23;;;;;;;8.05;4.85;;;;;;;;;;4999136;28;20042;-82
2021/04/20 05:16:51;;;;;;;8.90;4.32;;;10.80;52.00;;;;;;5003868;28;20112;-83
2021/04/20 05:19:36;;;;;;;8.18;5.68;;;6.40;49.50;;;;;;5006370;28;20026;-82
2021/04/20 05:22:02;;;;;;;9.93;4.07;;;;;;;;;;4993787;28;20033;-82
2021/04/20 05:24:29;;;;;;;8.32;4.35;;;6.60;48.50;;;;;;4996778;28;20026;-84
2021/04/20 05:26:56;;;;;;;8.23;4.87;;;6.40;47.80;;;;;;4996514;28;20502;-82
2021/04/20 05:29:22;;;;;;;8.52;4.65;;;6.50;48.60;;;;;;4998874;28;20284;-84
2021/04/20 05:31:49;;;;;;;8.82;4.93;;;6.40;48.80;;;;;;4994333;28;20038;-83
2021/04/20 05:34:18;;;;;;;8.15;4.53;;;6.20;49.60;;;;;;5009159;28;20119;-83
2021/04/20 05:36:47;;;;;;;8.55;4.82;;;;;;;;;;4994552;28;20031;-84
2021/04/20 05:39:13;;;;;;;13.30;6.85;;;;;;;;;;4997283;28;20077;-82
2021/04/20 05:41:40;;;;;;;9.75;4.10;;;6.70;49.30;;;;;;4997752;28;20046;-82
2021/04/20 05:44:08;;;;;;;13.85;5.65;;;6.80;48.90;;;;;;4996791;28;20034;-82
2021/04/20 05:46:47;;;;;;;13.40;6.80;;;7.00;48.40;;;;;;5005974;28;20026;-85
2021/04/20 05:49:15;;;;;;;11.85;6.03;;;7.10;47.10;;;;;;4994418;28;20044;-83
2021/04/20 05:51:41;;;;;;;12.57;5.82;;;;;;;;;;5006363;28;20164;-84
2021/04/20 05:54:09;;;;;;;18.33;7.07;;;7.40;47.30;;;;;;5008747;28;20140;-84
2021/04/20 05:56:35;;;;;;;14.90;7.85;;;;;;;;;;5004558;28;20344;-83
2021/04/20 05:59:04;;;;;;;11.30;5.57;;;;;;;;;;5006763;28;20496;-84
2021/04/20 06:01:30;;;;;;;12.10;6.57;;;7.10;47.80;;;;;;4995654;28;20519;-84
2021/04/20 06:03:57;;;;;;;16.17;7.40;;;7.10;61.90;;;;;;4993213;28;20029;-83
2021/04/20 06:06:23;;;;;;;12.50;6.75;;;7.20;47.40;;;;;;5008067;28;20029;-84
2021/04/20 06:08:52;;;;;;;7.78;4.28;;;7.30;48.90;;;;;;4999954;28;20381;-83
2021/04/20 06:11:20;;;;;;;12.90;6.07;;;7.40;48.90;;;;;;5012574;28;20121;-84
2021/04/20 06:13:46;;;;;;;13.82;6.82;;;7.60;49.40;;;;;;4988690;28;20029;-83
2021/04/20 06:16:13;;;;;;;12.90;5.85;;;;;;;;;;5003972;28;20033;-82
2021/04/20 06:18:39;;;;;;;14.65;7.45;;;;;;;;;;5002273;28;20037;-83
2021/04/20 06:21:06;;;;;;;13.55;6.55;;;7.90;60.70;;;;;;5006113;28;20059;-82
2021/04/20 06:23:32;;;;;;;17.85;7.43;;;;;;;;;;5002127;28;20030;-81
2021/04/20 06:26:00;;;;;;;10.70;4.53;;;8.30;48.40;;;;;;5002307;28;20754;-81
2021/04/20 06:28:26;;;;;;;18.23;8.02;;;;;;;;;;5005276;28;20053;-82
2021/04/20 06:30:56;;;;;;;13.13;6.20;;;8.70;47.10;;;;;;5004039;28;21126;-81
2021/04/20 06:33:25;;;;;;;18.30;7.13;;;8.70;47.70;;;;;;5028767;28;20027;-82
2021/04/20 06:35:53;;;;;;;11.38;5.43;;;8.90;48.50;;;;;;5003712;28;20025;-82
2021/04/20 06:38:19;;;;;;;10.52;5.68;;;;;;;;;;5004190;28;20052;-82
2021/04/20 06:40:50;;;;;;;13.88;6.45;;;8.80;47.30;;;;;;5004625;28;20522;-81
2021/04/20 06:43:21;;;;;;;9.85;6.75;;;;;;;;;;5004163;28;20141;-81
2021/04/20 06:45:59;;;;;;;10.82;6.47;;;9.70;47.50;;;;;;5003218;28;20022;-82
2021/04/20 06:48:54;;;;;;;9.77;5.28;;;10.40;48.70;;;;;;5003481;28;20034;-83
2021/04/20 06:51:23;;;;;;;14.10;6.00;;;10.40;44.90;;;;;;5005614;28;20076;-83
2021/04/20 06:54:11;;;;;;;14.23;6.35;;;10.70;45.10;;;;;;5018335;28;20141;-83
2021/04/20 06:56:39;;;;;;;9.18;4.68;;;11.00;43.70;;;;;;5004404;28;20117;-84
2021/04/20 06:59:05;;;;;;;10.27;5.80;;;;;;;;;;5004098;28;20121;-83
2021/04/20 07:01:38;;;;;;;14.75;6.40;;;;;;;;;;5005929;28;20122;-84
2021/04/20 07:04:26;;;;;;;9.73;6.03;;;11.50;43.90;;;;;;5006497;28;20038;-84
2021/04/20 07:07:10;;;;;;;12.88;5.72;;;11.60;52.40;;;;;;5007203;28;20035;-84
2021/04/20 07:09:42;;;;;;;10.02;5.75;;;11.90;42.40;;;;;;5007269;28;20129;-85
2021/04/20 07:12:11;;;;;;;11.85;5.93;;;12.40;42.00;;;;;;5005801;28;20030;-83
2021/04/20 07:14:51;;;;;;;21.33;6.20;;;13.60;40.60;;;;;;5003768;28;20056;-84
2021/04/20 07:17:36;;;;;;;15.88;6.03;;;14.70;38.40;;;;;;5005440;28;20515;-84
2021/04/20 07:20:39;;;;;;;7.15;4.70;;;16.00;33.70;;;;;;5002548;28;20030;-84
2021/04/20 07:23:38;;;;;;;9.43;5.85;;;17.20;34.60;;;;;;5002043;28;20117;-83
2021/04/20 07:26:30;;;;;;;11.70;5.82;;;18.20;30.10;;;;;;5001568;28;20022;-84
2021/04/20 07:29:26;;;;;;;8.70;5.72;;;18.80;36.80;;;;;;5004112;28;20033;-84
2021/04/20 07:31:52;;;;;;;8.55;5.05;;;;;;;;;;5020658;28;20037;-85
2021/04/20 07:34:25;;;;;;;9.60;5.60;;;19.80;28.10;;;;;;5006219;28;20061;-85
2021/04/20 07:37:34;;;;;;;11.20;5.75;;;20.10;28.20;;;;;;5005590;28;20034;-85
2021/04/20 07:40:39;;;;;;;12.93;6.43;;;20.30;28.00;;;;;;4986833;28;20034;-82
2021/04/20 07:43:11;;;;;;;12.32;5.88;;;21.10;27.00;;;;;;4961948;28;20054;-84
2021/04/20 07:45:52;;;;;;;9.65;5.25;;;21.60;26.60;;;;;;4963515;28;20054;-85
2021/04/20 07:48:26;;;;;;;7.63;4.55;;;21.90;25.50;;;;;;4964501;28;20082;-84
2021/04/20 07:50:57;;;;;;;11.95;4.22;;;21.40;26.40;;;;;;4964808;28;20123;-84
2021/04/20 07:53:34;;;;;;;9.50;4.75;;;22.10;26.00;;;;;;4961930;28;20151;-85
2021/04/20 07:56:09;;;;;;;7.78;3.85;;;22.00;25.30;;;;;;4959748;28;20042;-82
2021/04/20 07:58:43;;;;;;;7.57;4.15;;;22.00;24.90;;;;;;4962676;28;20603;-83
2021/04/20 08:01:35;;;;;;;8.82;4.28;;;22.70;24.60;;;;;;4966450;28;20130;-83
2021/04/20 08:04:01;;;;;;;12.32;4.80;;;;;;;;;;4966759;28;20097;-84
2021/04/20 08:06:29;;;;;;;8.15;4.43;;;23.40;24.90;;;;;;4927948;28;20042;-84
2021/04/20 08:09:00;;;;;;;5.82;4.13;;;22.80;24.90;;;;;;4966235;28;20181;-83
2021/04/20 08:11:29;;;;;;;9.10;4.47;;;23.00;24.80;;;;;;4961027;28;20038;-84
2021/04/20 08:14:07;;;;;;;7.72;5.15;;;;;;;;;;4966327;28;20101;-84
2021/04/20 08:16:37;;;;;;;7.15;4.13;;;22.80;25.00;;;;;;4975013;28;20054;-85
2021/04/20 08:19:09;;;;;;;11.63;5.18;;;22.70;24.60;;;;;;4984670;28;20022;-83
2021/04/20 08:21:39;;;;;;;8.00;4.50;;;22.80;24.50;;;;;;5025002;28;20137;-83
2021/04/20 08:24:07;;;;;;;8.02;5.00;;;22.80;24.20;;;;;;5008771;28;20061;-84
2021/04/20 08:26:39;;;;;;;9.63;5.00;;;23.10;24.10;;;;;;5006006;28;20430;-83
2021/04/20 08:29:18;;;;;;;11.77;4.78;;;23.50;25.30;;;;;;5008627;28;20100;-83
2021/04/20 08:32:04;;;;;;;18.30;4.60;;;23.30;23.40;;;;;;5007659;28;20066;-83
2021/04/20 08:34:33;;;;;;;6.95;3.60;;;;;;;;;;5008461;28;20037;-83
2021/04/20 08:37:06;;;;;;;10.95;5.30;;;;;;;;;;5008316;28;20026;-82
2021/04/20 08:39:51;;;;;;;7.97;4.57;;;23.90;24.20;;;;;;5007398;28;20047;-83
2021/04/20 08:42:32;;;;;;;8.77;5.43;;;24.20;26.20;;;;;;5009220;28;20512;-83
2021/04/20 08:45:25;;;;;;;7.45;4.47;;;24.00;23.40;;;;;;5005313;28;20143;-84
2021/04/20 08:48:29;;;;;;;4.82;3.17;;;24.10;40.60;;;;;;5006913;28;20079;-83
2021/04/20 08:51:34;;;;;;;9.38;2.72;;;25.20;24.60;;;;;;5008326;28;20034;-82
2021/04/20 08:54:34;;;;;;;4.97;2.92;;;24.30;21.70;;;;;;5008233;28;20625;-82
2021/04/20 08:57:16;;;;;;;4.68;2.72;;;24.70;22.10;;;;;;5005289;28;20053;-83
2021/04/20 09:00:14;;;;;;;4.63;2.85;;;24.80;20.90;;;;;;5005605;28;20069;-83
2021/04/20 09:02:40;;;;;;;7.80;2.67;;;;;;;;;;5008457;28;20127;-84
2021/04/20 09:05:29;;;;;;;4.50;2.15;;;25.00;35.80;;;;;;5006167;28;20123;-83
2021/04/20 09:07:55;;;;;;;4.10;2.40;;;;;;;;;;5007910;28;20033;-84
2021/04/20 09:10:35;;;;;;;5.03;2.67;;;25.20;39.50;;;;;;5007527;28;20030;-83
2021/04/20 09:13:13;;;;;;;5.45;2.67;;;24.90;24.10;;;;;;5008401;28;20037;-82
2021/04/20 09:15:44;;;;;;;5.25;2.65;;;25.20;20.30;;;;;;5005840;28;20059;-82
2021/04/20 09:18:16;;;;;;;5.97;3.10;;;25.40;21.80;;;;;;5007814;28;20061;-82
2021/04/20 09:21:16;;;;;;;5.10;2.03;;;25.50;20.30;;;;;;5003713;28;20080;-82
2021/04/20 09:24:09;;;;;;;4.05;2.58;;;25.40;20.60;;;;;;5004531;28;20037;-83
2021/04/20 09:27:00;;;;;;;5.65;2.65;;;25.60;21.30;;;;;;5002309;28;20038;-84
2021/04/20 09:29:55;;;;;;;4.97;2.30;;;25.60;19.90;;;;;;5003691;28;20045;-83
2021/04/20 09:32:35;;;;;;;7.20;2.47;;;25.70;20.80;;;;;;5002652;28;20033;-83
2021/04/20 09:35:03;;;;;;;4.22;2.80;;;25.70;21.30;;;;;;5003342;28;20049;-83
2021/04/20 09:37:32;;;;;;;4.47;2.92;;;25.90;21.50;;;;;;5004128;28;20054;-84
2021/04/20 09:40:00;;;;;;;3.72;2.45;;;25.80;21.30;;;;;;5005209;28;20040;-82
2021/04/20 09:42:27;;;;;;;4.90;2.65;;;25.90;19.80;;;;;;5003777;28;20671;-83
2021/04/20 09:45:11;;;;;;;5.22;2.58;;;26.10;21.50;;;;;;4983937;28;20038;-83
2021/04/20 09:48:01;;;;;;;4.38;2.40;;;28.80;21.40;;;;;;5002933;28;20813;-82
2021/04/20 09:50:51;;;;;;;4.07;2.55;;;26.30;20.10;;;;;;5003865;28;20527;-81
2021/04/20 09:53:28;;;;;;;4.30;2.13;;;26.60;20.30;;;;;;5000208;28;20033;-82
2021/04/20 09:56:20;;;;;;;4.78;1.80;;;26.30;29.60;;;;;;5002946;28;20550;-82
2021/04/20 09:58:48;;;;;;;5.72;2.45;;;26.40;19.80;;;;;;5003309;28;20506;-81
2021/04/20 10:01:41;;;;;;;4.25;2.35;;;26.60;28.60;;;;;;5003345;28;20049;-81
2021/04/20 10:04:09;;;;;;;4.82;2.15;;;26.40;19.70;;;;;;5007044;28;20026;-82
2021/04/20 10:06:48;;;;;;;3.47;1.98;;;27.10;19.60;;;;;;5006984;28;20682;-82
2021/04/20 10:09:14;;;;;;;4.47;2.72;;;;;;;;;;5007223;28;20040;-81
2021/04/20 10:12:04;;;;;;;2.83;2.00;;;27.00;19.10;;;;;;5007294;28;20030;-82
2021/04/20 10:14:53;;;;;;;3.35;1.98;;;27.20;20.60;;;;;;5003069;28;20034;-81
2021/04/20 10:17:44;;;;;;;2.55;1.65;;;27.10;18.60;;;;;;5006557;28;20113;-82
2021/04/20 10:20:29;;;;;;;3.80;1.98;;;27.60;35.20;;;;;;5003827;28;20034;-83
2021/04/20 10:23:12;;;;;;;3.92;2.70;;;27.40;18.10;;;;;;5007099;28;20029;-83
2021/04/20 10:25:45;;;;;;;2.88;2.03;;;27.30;19.00;;;;;;5005184;28;20036;-81
2021/04/20 10:28:52;;;;;;;7.82;2.08;;;27.50;18.80;;;;;;5001747;28;20133;-79
2021/04/20 10:31:22;;;;;;;5.03;2.70;;;27.80;16.70;;;;;;5000405;28;20033;-82
2021/04/20 10:33:50;;;;;;;4.05;2.20;;;27.80;18.30;;;;;;5006816;28;20080;-82
2021/04/20 10:36:20;;;;;;;3.03;2.05;;;27.90;18.40;;;;;;5007200;28;20034;-82
2021/04/20 10:38:46;;;;;;;5.63;2.22;;;;;;;;;;5006240;28;20621;-82
2021/04/20 10:41:22;;;;;;;7.60;2.33;;;27.70;30.00;;;;;;5000198;28;20561;-81
2021/04/20 10:43:50;;;;;;;7.93;2.80;;;27.70;19.30;;;;;;5002662;28;20125;-82
2021/04/20 10:46:23;;;;;;;7.10;2.50;;;;;;;;;;5003259;28;20588;-81
2021/04/20 10:48:50;;;;;;;5.00;2.50;;;27.50;19.00;;;;;;5001381;28;21686;-84
2021/04/20 10:51:16;;;;;;;10.55;3.05;;;;;;;;;;5007550;28;20026;-82
2021/04/20 10:53:42;;;;;;;6.80;3.33;;;;;;;;;;5005430;28;20065;-82
2021/04/20 10:56:14;;;;;;;6.38;2.60;;;26.80;19.70;;;;;;5005044;28;20092;-82
2021/04/20 10:58:45;;;;;;;5.45;2.83;;;26.30;19.20;;;;;;5005047;28;20419;-84
2021/04/20 11:01:18;;;;;;;5.03;2.33;;;25.70;18.70;;;;;;5006736;28;20026;-82
2021/04/20 11:03:46;;;;;;;5.40;2.83;;;25.30;19.80;;;;;;5004814;28;20108;-82
2021/04/20 11:06:50;;;;;;;5.68;2.65;;;24.80;20.10;;;;;;5004748;28;20028;-84
2021/04/20 11:09:16;;;;;;;4.50;2.42;;;;;;;;;;5006959;28;20038;-82
2021/04/20 11:11:42;;;;;;;3.92;2.13;;;;;;;;;;5001781;28;20149;-82
2021/04/20 11:14:08;;;;;;;5.13;2.53;;;;;;;;;;5004874;28;20057;-81
2021/04/20 11:16:42;;;;;;;5.47;2.92;;;23.30;20.40;;;;;;5003996;28;21076;-82
2021/04/20 11:19:11;;;;;;;5.18;2.50;;;23.00;21.80;;;;;;5002299;28;20033;-80
2021/04/20 11:21:41;;;;;;;4.78;2.40;;;23.00;21.60;;;;;;5006117;28;20041;-81
2021/04/20 11:24:17;;;;;;;4.40;2.33;;;23.10;20.70;;;;;;5005631;28;20061;-80
2021/04/20 11:26:46;;;;;;;5.88;3.30;;;23.00;22.10;;;;;;5000931;28;20119;-81
2021/04/20 11:29:25;;;;;;;13.00;2.85;;;22.70;22.60;;;;;;5002794;28;20522;-81
2021/04/20 11:31:52;;;;;;;3.17;1.88;;;;;;;;;;5005816;28;20026;-81
2021/04/20 11:34:22;;;;;;;4.93;2.33;;;22.70;23.60;;;;;;5009011;28;20459;-81
2021/04/20 11:37:06;;;;;;;7.68;3.88;;;22.70;22.40;;;;;;5009677;28;20681;-81
2021/04/20 11:39:55;;;;;;;9.70;3.92;;;22.50;21.90;;;;;;5005471;28;20029;-83
2021/04/20 11:42:36;;;;;;;5.85;2.70;;;22.20;21.20;;;;;;5040725;28;20419;-81
2021/04/20 11:45:04;;;;;;;6.05;2.55;;;;;;;;;;5003656;28;20593;-80
2021/04/20 11:47:30;;;;;;;4.85;2.97;;;;;;;;;;5008340;28;20128;-82
2021/04/20 11:49:59;;;;;;;6.30;3.03;;;;;;;;;;5009022;28;20411;-81
2021/04/20 11:52:29;;;;;;;3.38;2.08;;;21.80;20.80;;;;;;5009969;28;20040;-82
2021/04/20 11:55:04;;;;;;;6.43;3.70;;;21.60;24.40;;;;;;5007627;28;20057;-81
2021/04/20 11:57:30;;;;;;;4.50;2.60;;;;;;;;;;5006043;28;20045;-82
2021/04/20 11:59:57;;;;;;;4.88;2.38;;;21.60;21.90;;;;;;5009072;28;20483;-82
2021/04/20 12:02:29;;;;;;;5.45;2.55;;;21.60;20.90;;;;;;5009265;28;20042;-81
2021/04/20 12:05:00;;;;;;;4.82;2.67;;;21.40;20.90;;;;;;5008049;28;20037;-82
2021/04/20 12:07:28;;;;;;;6.70;2.78;;;21.40;21.50;;;;;;5021549;28;20038;-83
2021/04/20 12:09:54;;;;;;;5.55;3.03;;;;;;;;;;5008881;28;20047;-84
2021/04/20 12:12:29;;;;;;;5.28;2.33;;;21.10;20.10;;;;;;5010009;28;20116;-82
2021/04/20 12:14:55;;;;;;;6.35;2.47;;;21.10;21.00;;;;;;5006931;28;20036;-82
2021/04/20 12:17:31;;;;;;;11.60;2.83;;;21.00;22.20;;;;;;5004670;28;20030;-82
2021/04/20 12:19:59;;;;;;;5.07;2.50;;;21.10;22.90;;;;;;5009523;28;20117;-81
2021/04/20 12:22:27;;;;;;;5.50;2.80;;;21.10;21.90;;;;;;5024021;28;20053;-81
2021/04/20 12:24:54;;;;;;;6.95;2.38;;;21.30;34.90;;;;;;5008129;28;20022;-81
2021/04/20 12:27:24;;;;;;;6.57;2.15;;;21.20;22.10;;;;;;5008465;28;20123;-81
2021/04/20 12:29:50;;;;;;;2.55;2.08;;;;;;;;;;5004755;28;20406;-78
2021/04/20 12:32:17;;;;;;;3.30;1.83;;;21.10;20.00;;;;;;5008625;28;20414;-82
2021/04/20 12:34:43;;;;;;;3.50;1.98;;;;;;;;;;5007848;28;20068;-81
2021/04/20 12:37:10;;;;;;;3.97;2.13;;;21.10;20.60;;;;;;5007745;28;20072;-83
2021/04/20 12:39:38;;;;;;;3.75;2.38;;;20.90;21.10;;;;;;5007596;28;20045;-84
2021/04/20 12:42:08;;;;;;;3.17;1.77;;;20.90;20.00;;;;;;5007680;28;20593;-84
2021/04/20 12:44:44;;;;;;;4.50;2.40;;;20.90;19.80;;;;;;4991684;28;20042;-83
2021/04/20 12:47:11;;;;;;;3.35;2.20;;;20.90;19.50;;;;;;5005415;28;20861;-83
2021/04/20 12:49:44;;;;;;;4.30;2.22;;;20.80;19.90;;;;;;5008343;28;20029;-82
2021/04/20 12:52:13;;;;;;;2.08;1.63;;;20.60;19.70;;;;;;5006015;28;20025;-82
2021/04/20 12:54:42;;;;;;;7.45;2.35;;;20.40;19.50;;;;;;5007182;28;20054;-81
2021/04/20 12:57:13;;;;;;;3.13;2.05;;;20.30;20.00;;;;;;5003740;28;20037;-81
2021/04/20 12:59:44;;;;;;;5.50;2.53;;;22.10;21.60;;;;;;5002398;28;20442;-81
2021/04/20 13:02:11;;;;;;;6.88;2.38;;;20.20;20.50;;;;;;5005158;28;20626;-81
2021/04/20 13:04:37;;;;;;;3.58;1.90;;;20.30;20.70;;;;;;5003016;28;20040;-80
2021/04/20 13:07:04;;;;;;;2.85;2.00;;;20.20;20.20;;;;;;5005213;28;20092;-81
2021/04/20 13:09:35;;;;;;;2.83;1.65;;;20.20;21.80;;;;;;5008348;28;20030;-80
2021/04/20 13:12:05;;;;;;;3.85;1.83;;;20.20;21.70;;;;;;4999671;28;20041;-80
2021/04/20 13:14:31;;;;;;;2.50;1.35;;;;;;;;;;4996841;28;20077;-82
2021/04/20 13:16:57;;;;;;;2.97;1.83;;;20.40;23.00;;;;;;5005139;28;20030;-81
2021/04/20 13:19:31;;;;;;;5.27;2.20;;;20.40;23.10;;;;;;5006953;28;20473;-81
2021/04/20 13:22:02;;;;;;;3.35;1.55;;;20.50;23.20;;;;;;5007654;28;20117;-82
2021/04/20 13:24:29;;;;;;;3.22;1.55;;;20.60;22.70;;;;;;5005774;28;20053;-82
2021/04/20 13:26:56;;;;;;;3.83;1.65;;;20.60;39.10;;;;;;5001336;28;20084;-80
2021/04/20 13:29:27;;;;;;;3.42;2.42;;;20.50;20.80;;;;;;5003790;28;20503;-82
2021/04/20 13:32:01;;;;;;;2.85;1.80;;;20.30;20.40;;;;;;5007417;28;20037;-81
2021/04/20 13:34:43;;;;;;;4.18;2.45;;;20.20;20.60;;;;;;5005078;28;20633;-82
2021/04/20 13:37:34;;;;;;;3.50;2.05;;;20.10;23.00;;;;;;5005124;28;20076;-81
2021/04/20 13:40:10;;;;;;;3.15;2.55;;;19.80;21.50;;;;;;4991237;28;20060;-83
2021/04/20 13:42:38;;;;;;;2.73;2.00;;;19.80;20.90;;;;;;5007247;28;20601;-81